Wachapreague, Virginia
Current Conditions -  °F | °C
As of 9:15 PM on Thursday 20 Nov 2014 (Local Time) from KMFV Reporting Station
Clear Clear  
Wind Chill: 50°   Ceiling: Unl
Heat Index: 50°   Visibility: 10mi
Dew Point: 28°   Wind: 13mph
Humidity: 43%   Direction: 260°W
Pressure: 30.02"   Gusts: 18mph
Location:  37.6°N, 75.69°W
Report Text: KMFV 210215Z AUTO 26011G16KT 10SM CLR 10/M02 A3002 RMK AO2
Loading
Personal Weather Stations






























Interactive Weather Map New forecast layout! Learn more

10-Day Weather Forecast

Advertisements
Track Severe Weather on mobile